• Join FlightAware (Why Join?)
  • Login
  • US Flag 
08:39PM EDT


 

Airport Tracker/Info


-or-


 

Live Flight TrackerFlight Track Log ✈ SWA127 ✈ 29-Aug-2013 ✈ KTPA - KBWI

Flight Track Log - Related Links

Times and Time Zones

All times are in EDT time to prevent confusion due to time zone crossing. See the SWA127 flight status page for this flight to view local times or setup timezone preferences in your user account.

Time Position Orientation Groundspeed Altitude Reporting Facility
EDT Latitude Longitude Course Direction KTS MPH feet Rate Location/Type
03:44PM 27.9833 -82.5333 North 155 178 600  Level Tampa TRACON
03:45PM 28.0783 -82.5233 North 218 251 3,800 2,160 Climbing Jacksonville Center
03:46PM 28.1472 -82.5278 357° North 229 264 6,300 2,640 Climbing Jacksonville Center
03:47PM 28.2225 -82.5439 349° North 252 290 9,100 2,100 Climbing Jacksonville Center
03:48PM 28.3061 -82.5531 354° North 277 319 10,600 2,040 Climbing Jacksonville Center
03:49PM 28.4019 -82.5644 354° North 317 365 13,200 2,460 Climbing Jacksonville Center
03:50PM 28.5000 -82.5714 356° North 337 388 15,600 2,220 Climbing Jacksonville Center
03:51PM 28.6025 -82.5828 354° North 355 409 17,700 1,860 Climbing Jacksonville Center
03:52PM 28.7067 -82.5944 354° North 365 420 19,400 1,620 Climbing Jacksonville Center
03:53PM 28.8175 -82.6081 354° North 379 436 21,000 1,560 Climbing Jacksonville Center
03:54PM 28.9281 -82.6244 353° North 391 450 22,600 1,380 Climbing Jacksonville Center
03:55PM 29.0450 -82.6408 353° North 402 463 23,900 1,500 Climbing Jacksonville Center
03:56PM 29.1619 -82.6572 353° North 414 476 25,600 1,380 Climbing Jacksonville Center
03:57PM 29.2808 -82.6736 353° North 425 489 26,700 1,080 Climbing Jacksonville Center
03:58PM 29.4000 -82.6900 353° North 425 489 27,800 1,140 Climbing Jacksonville Center
03:59PM 29.5272 -82.6944 358° North 432 497 29,000 1,260 Climbing Jacksonville Center
04:00PM 29.6650 -82.6989 358° North 444 511 30,400 1,320 Climbing Jacksonville Center
04:01PM 29.7842 -82.6939 North 435 501 31,700 960 Climbing Jacksonville Center
04:02PM 29.9053 -82.6914 North 435 501 32,400 600 Climbing Jacksonville Center
04:03PM 30.0283 -82.6933 359° North 435 501 32,900 240 Climbing Jacksonville Center
04:04PM 30.1558 -82.6883 North 449 517 32,900  Level Jacksonville Center
04:05PM 30.2808 -82.6858 North 449 517 32,900  Level Jacksonville Center
04:06PM 30.4083 -82.6856 360° North 449 517 32,900  Level Jacksonville Center
04:07PM 30.5294 -82.6731 North 444 511 32,900  Level Jacksonville Center
04:08PM 30.6378 -82.6244 21° North 422 486 32,900  Level Jacksonville Center
04:09PM 30.7506 -82.5711 22° Northeast 422 486 32,900  Level Jacksonville Center
04:10PM 30.8653 -82.5150 23° Northeast 428 493 32,900  Level Jacksonville Center
04:11PM 30.9756 -82.4614 23° Northeast 428 493 32,900  Level Jacksonville Center
04:12PM 31.0883 -82.4050 23° Northeast 435 501 32,900  Level Jacksonville Center
04:13PM 31.2028 -82.3508 22° Northeast 435 501 32,900  Level Jacksonville Center
04:14PM 31.3175 -82.2944 23° Northeast 435 501 32,900  Level Jacksonville Center
04:15PM 31.4300 -82.2400 22° Northeast 430 495 32,900  Level Jacksonville Center
04:16PM 31.5425 -82.1856 22° Northeast 436 502 32,900  Level Jacksonville Center
04:17PM 31.6528 -82.1286 24° Northeast 430 495 32,900  Level Jacksonville Center
04:18PM 31.7672 -82.0692 24° Northeast 430 495 32,900  Level Jacksonville Center
04:19PM 31.8731 -81.9972 30° Northeast 436 502 33,000  Climbing Jacksonville Center
04:20PM 31.9686 -81.9278 32° Northeast 443 510 33,000  Level Jacksonville Center
04:21PM 32.0767 -81.8556 30° Northeast 443 510 33,000  Level Jacksonville Center
04:22PM 32.1928 -81.7706 32° Northeast 443 510 33,000  Level Jacksonville Center
04:23PM 32.3008 -81.6981 30° Northeast 434 499 33,000  Level Jacksonville Center
04:24PM 32.4064 -81.6228 31° Northeast 445 512 33,000  Level Jacksonville Center
04:25PM 32.5122 -81.5450 32° Northeast 439 505 33,000  Level Jacksonville Center
04:26PM 32.6200 -81.4694 31° Northeast 439 505 33,000  Level Jacksonville Center
04:27PM 32.7275 -81.3936 31° Northeast 438 504 33,000  Level Jacksonville Center
04:28PM 32.8331 -81.3153 32° Northeast 438 504 33,000  Level Jacksonville Center
04:29PM 32.9447 -81.2392 30° Northeast 443 510 33,000  Level Jacksonville Center
04:30PM 33.0503 -81.1653 30° Northeast 443 510 33,000  Level Jacksonville Center
04:31PM 33.1556 -81.0889 31° Northeast 443 510 33,000  Level Jacksonville Center
04:32PM 33.2631 -81.0097 32° Northeast 444 511 33,000  Level Jacksonville Center
04:33PM 33.3683 -80.9328 31° Northeast 444 511 33,000  Level Jacksonville Center
04:34PM 33.4778 -80.8556 30° Northeast 444 511 33,000  Level Jacksonville Center
04:35PM 33.5850 -80.7758 32° Northeast 444 511 33,000  Level Jacksonville Center
04:36PM 33.6942 -80.6983 31° Northeast 444 511 33,000  Level Jacksonville Center
04:37PM 33.7972 -80.6208 32° Northeast 444 511 33,000  Level Jacksonville Center
04:38PM 33.9064 -80.5431 31° Northeast 444 511 33,000 -60 Level Jacksonville Center
04:39PM 34.0133 -80.4625 32° Northeast 444 511 32,900  Descending Jacksonville Center
04:42PM 34.2658 -80.2758 31° Northeast 449 517 33,000  Climbing Washington Center
04:43PM 34.3775 -80.1892 33° Northeast 449 517 33,000  Level Washington Center
04:44PM 34.4828 -80.1094 32° Northeast 449 517 33,000  Level Washington Center
04:45PM 34.5900 -80.0319 31° Northeast 447 514 33,000  Level Washington Center
04:46PM 34.7036 -79.9522 30° Northeast 452 520 33,000  Level Washington Center
04:47PM 34.8067 -79.8694 33° Northeast 452 520 33,000  Level Washington Center
04:48PM 34.9139 -79.7889 32° Northeast 452 520 33,000  Level Washington Center
04:49PM 35.0189 -79.7081 32° Northeast 447 514 33,000  Level Washington Center
04:50PM 35.1239 -79.6322 31° Northeast 441 507 33,000  Level Washington Center
04:51PM 35.2189 -79.5378 39° Northeast 441 507 33,000  Level Washington Center
04:52PM 35.3119 -79.4356 42° Northeast 441 507 33,000  Level Washington Center
04:53PM 35.4050 -79.3303 43° Northeast 446 513 33,000  Level Washington Center
04:54PM 35.4958 -79.2250 43° Northeast 452 520 33,000  Level Washington Center
04:55PM 35.5781 -79.1292 43° Northeast 447 514 33,000  Level Washington Center
04:56PM 35.6686 -79.0283 42° Northeast 447 514 33,000  Level Washington Center
04:57PM 35.7592 -78.9194 44° Northeast 442 509 33,000 -240 Level Washington Center
04:58PM 35.8497 -78.8131 44° Northeast 442 509 32,600 -780 Descending Washington Center
04:59PM 35.9483 -78.7197 37° Northeast 437 503 31,500 -1,080 Descending Washington Center
05:00PM 36.0506 -78.6339 34° Northeast 437 503 30,500 -1,020 Descending Washington Center
05:01PM 36.1508 -78.5450 36° Northeast 442 509 29,500 -780 Descending Washington Center
05:02PM 36.2469 -78.4586 36° Northeast 436 502 29,000 -300 Descending Washington Center
05:03PM 36.3450 -78.3744 35° Northeast 436 502 29,000  Level Washington Center
05:04PM 36.4408 -78.2875 36° Northeast 436 502 29,000 -360 Level Washington Center
05:05PM 36.5344 -78.2028 36° Northeast 425 489 28,400 -540 Descending Washington Center
05:06PM 36.6367 -78.1078 37° Northeast 425 489 28,000 -300 Descending Washington Center
05:07PM 36.7322 -78.0228 35° Northeast 420 483 27,900 -480 Descending Washington Center
05:08PM 36.8258 -77.9375 36° Northeast 420 483 27,100 -480 Descending Washington Center
05:09PM 36.9192 -77.8547 35° Northeast 414 476 27,000 -600 Descending Washington Center
05:10PM 37.0206 -77.7953 25° Northeast 403 464 26,000 -1,200 Descending Washington Center
05:11PM 37.1236 -77.7486 20° North 390 449 24,600 -1,380 Descending Washington Center
05:12PM 37.2308 -77.6969 21° North 395 455 23,300 -840 Descending Washington Center
05:13PM 37.3358 -77.6475 21° North 400 460 23,000 -180 Descending Washington Center
05:14PM 37.4411 -77.5981 20° North 400 460 23,000  Level Washington Center
05:15PM 37.5442 -77.5458 22° Northeast 395 455 23,000  Level Washington Center
05:16PM 37.6492 -77.4961 21° North 390 449 23,000  Level Washington Center
05:17PM 37.7522 -77.4461 21° North 390 449 23,000  Level Washington Center
05:18PM 37.8531 -77.3958 21° North 390 449 23,000  Level Washington Center
05:19PM 37.9581 -77.3458 21° North 390 449 23,000 -240 Level Washington Center
05:20PM 38.0569 -77.2981 21° North 390 449 22,600 -1,320 Descending Washington Center
05:21PM 38.1575 -77.2500 21° North 385 443 20,400 -2,340 Descending Washington Center
05:22PM 38.2606 -77.1994 21° North 385 443 18,000 -2,580 Descending Washington Center
05:23PM 38.3550 -77.1511 22° Northeast 380 437 15,400 -1,980 Descending Washington Center
05:24PM 38.4353 -77.0733 37° Northeast 360 414 14,100 -1,620 Descending Washington Center
05:25PM 38.5667 -76.9167 43° Northeast 343 395 11,000 -1,500 Descending Potomac TRACON
05:26PM 38.6333 -76.8333 44° Northeast 328 377 10,000 -960 Descending Potomac TRACON
05:27PM 38.7000 -76.7667 38° Northeast 278 320 9,100 -1,320 Descending Potomac TRACON
05:28PM 38.7333 -76.6833 63° Northeast 276 318 7,600 -1,500 Descending Potomac TRACON
05:29PM 38.7667 -76.6000 63° Northeast 273 314 6,300 -840 Descending Potomac TRACON
05:30PM 38.8167 -76.5333 46° Northeast 271 312 5,900 -300 Descending Potomac TRACON
05:31PM 38.8833 -76.5500 349° North 266 306 5,800 -420 Descending Potomac TRACON
05:32PM 38.9500 -76.5833 339° North 269 310 5,100 -600 Descending Potomac TRACON
05:33PM 39.0000 -76.6500 314° West 246 283 4,600 -480 Descending Potomac TRACON
05:35PM 39.0333 -76.7333 297° West 229 264 4,100 -300 Descending Potomac TRACON
05:35PM 39.0667 -76.8000 303° West 210 242 4,000  Descending Potomac TRACON
05:36PM 39.0833 -76.8667 288° West 217 250 4,100 -360 Climbing Potomac TRACON
05:37PM 39.1167 -76.9167 311° West 220 253 3,400 -960 Descending Potomac TRACON
05:38PM 39.1667 -76.9167 360° North 207 238 2,300 -720 Descending Potomac TRACON
05:39PM 39.1833 -76.8500 72° East 188 216 1,900 -300 Descending Potomac TRACON
05:40PM 39.1833 -76.8000 90° East 180 207 1,700 -540 Descending Potomac TRACON
05:41PM 39.1833 -76.7333 90° East 146 168 900 -840 Descending Potomac TRACON
05:43PM 39.1667 -76.6667 74° East  Level FlightAware Approximate
05:50PM 39.1754 -76.6683 74° East  Level Estimated